sensor_id;sensor_type;location;lat;lon;timestamp;temperature;humidity
34568;DHT22;20806;50.746;7.116;2023-01-01T00:01:26;15.90;96.50
34568;DHT22;20806;50.746;7.116;2023-01-01T00:03:52;16.00;96.40
34568;DHT22;20806;50.746;7.116;2023-01-01T00:06:18;16.00;96.30
34568;DHT22;20806;50.746;7.116;2023-01-01T00:08:44;16.00;96.30
34568;DHT22;20806;50.746;7.116;2023-01-01T00:11:09;16.00;96.20
34568;DHT22;20806;50.746;7.116;2023-01-01T00:13:36;15.90;96.20
34568;DHT22;20806;50.746;7.116;2023-01-01T00:16:03;15.90;96.20
34568;DHT22;20806;50.746;7.116;2023-01-01T00:18:29;15.90;96.10
34568;DHT22;20806;50.746;7.116;2023-01-01T00:21:00;15.90;96.10
34568;DHT22;20806;50.746;7.116;2023-01-01T00:23:26;15.90;96.10
34568;DHT22;20806;50.746;7.116;2023-01-01T00:25:51;15.80;96.00
34568;DHT22;20806;50.746;7.116;2023-01-01T00:28:16;15.90;95.80
34568;DHT22;20806;50.746;7.116;2023-01-01T00:30:42;15.90;95.70
34568;DHT22;20806;50.746;7.116;2023-01-01T00:33:07;15.90;95.60
34568;DHT22;20806;50.746;7.116;2023-01-01T00:35:33;15.90;95.50
34568;DHT22;20806;50.746;7.116;2023-01-01T00:37:59;15.90;95.40
34568;DHT22;20806;50.746;7.116;2023-01-01T00:40:24;15.90;95.40
34568;DHT22;20806;50.746;7.116;2023-01-01T00:42:50;16.00;95.20
34568;DHT22;20806;50.746;7.116;2023-01-01T00:45:15;15.90;95.00
34568;DHT22;20806;50.746;7.116;2023-01-01T00:47:41;15.90;95.10
34568;DHT22;20806;50.746;7.116;2023-01-01T00:50:06;15.90;95.00
34568;DHT22;20806;50.746;7.116;2023-01-01T00:52:32;15.90;95.10
34568;DHT22;20806;50.746;7.116;2023-01-01T00:54:57;15.90;95.00
34568;DHT22;20806;50.746;7.116;2023-01-01T00:57:23;15.90;94.80
34568;DHT22;20806;50.746;7.116;2023-01-01T00:59:48;15.90;94.80
34568;DHT22;20806;50.746;7.116;2023-01-01T01:02:14;15.90;94.70
34568;DHT22;20806;50.746;7.116;2023-01-01T01:04:40;15.90;94.50
34568;DHT22;20806;50.746;7.116;2023-01-01T01:07:05;15.90;94.50
34568;DHT22;20806;50.746;7.116;2023-01-01T01:09:31;15.90;94.30
34568;DHT22;20806;50.746;7.116;2023-01-01T01:11:56;15.90;94.30
34568;DHT22;20806;50.746;7.116;2023-01-01T01:14:22;15.90;94.30
34568;DHT22;20806;50.746;7.116;2023-01-01T01:16:47;16.00;94.20
34568;DHT22;20806;50.746;7.116;2023-01-01T01:19:13;15.90;94.20
34568;DHT22;20806;50.746;7.116;2023-01-01T01:21:43;15.90;94.10
34568;DHT22;20806;50.746;7.116;2023-01-01T01:24:08;16.00;94.20
34568;DHT22;20806;50.746;7.116;2023-01-01T01:26:34;16.00;94.20
34568;DHT22;20806;50.746;7.116;2023-01-01T01:29:00;16.00;94.10
34568;DHT22;20806;50.746;7.116;2023-01-01T01:31:27;15.90;94.00
34568;DHT22;20806;50.746;7.116;2023-01-01T01:33:53;15.90;93.90
34568;DHT22;20806;50.746;7.116;2023-01-01T01:36:19;15.90;93.90
34568;DHT22;20806;50.746;7.116;2023-01-01T01:38:45;15.90;94.00
34568;DHT22;20806;50.746;7.116;2023-01-01T01:41:11;15.90;94.10
34568;DHT22;20806;50.746;7.116;2023-01-01T01:48:29;15.80;94.10
34568;DHT22;20806;50.746;7.116;2023-01-01T01:50:58;15.80;94.10
34568;DHT22;20806;50.746;7.116;2023-01-01T01:53:24;15.90;94.10
34568;DHT22;20806;50.746;7.116;2023-01-01T01:55:55;15.80;94.10
34568;DHT22;20806;50.746;7.116;2023-01-01T01:58:22;15.80;94.10
34568;DHT22;20806;50.746;7.116;2023-01-01T02:00:48;15.80;94.30
34568;DHT22;20806;50.746;7.116;2023-01-01T02:03:19;15.70;94.10
34568;DHT22;20806;50.746;7.116;2023-01-01T02:05:45;15.70;94.20
34568;DHT22;20806;50.746;7.116;2023-01-01T02:08:10;15.70;94.20
34568;DHT22;20806;50.746;7.116;2023-01-01T02:10:38;15.70;94.10
34568;DHT22;20806;50.746;7.116;2023-01-01T02:13:04;15.70;94.20
34568;DHT22;20806;50.746;7.116;2023-01-01T02:15:30;15.70;94.20
34568;DHT22;20806;50.746;7.116;2023-01-01T02:25:41;15.70;94.30
34568;DHT22;20806;50.746;7.116;2023-01-01T02:30:38;15.60;94.10
34568;DHT22;20806;50.746;7.116;2023-01-01T02:33:06;15.60;93.90
34568;DHT22;20806;50.746;7.116;2023-01-01T02:35:34;15.60;94.00
34568;DHT22;20806;50.746;7.116;2023-01-01T02:40:31;15.60;94.10
34568;DHT22;20806;50.746;7.116;2023-01-01T02:42:58;15.60;94.10
34568;DHT22;20806;50.746;7.116;2023-01-01T02:45:24;15.60;94.10
34568;DHT22;20806;50.746;7.116;2023-01-01T02:47:49;15.60;94.10
34568;DHT22;20806;50.746;7.116;2023-01-01T02:55:15;15.50;94.10
34568;DHT22;20806;50.746;7.116;2023-01-01T02:57:48;15.50;94.10
34568;DHT22;20806;50.746;7.116;2023-01-01T03:00:15;15.50;94.10
34568;DHT22;20806;50.746;7.116;2023-01-01T03:05:36;15.50;94.10
34568;DHT22;20806;50.746;7.116;2023-01-01T03:08:26;15.50;94.20
34568;DHT22;20806;50.746;7.116;2023-01-01T03:10:57;15.50;94.20
34568;DHT22;20806;50.746;7.116;2023-01-01T03:15:57;15.50;94.30
34568;DHT22;20806;50.746;7.116;2023-01-01T03:21:05;15.50;94.30
34568;DHT22;20806;50.746;7.116;2023-01-01T03:23:38;15.50;94.40
34568;DHT22;20806;50.746;7.116;2023-01-01T03:26:06;15.50;94.50
34568;DHT22;20806;50.746;7.116;2023-01-01T03:28:43;15.50;94.50
34568;DHT22;20806;50.746;7.116;2023-01-01T03:31:10;15.50;94.60
34568;DHT22;20806;50.746;7.116;2023-01-01T03:33:40;15.50;94.70
34568;DHT22;20806;50.746;7.116;2023-01-01T03:36:08;15.50;94.70
34568;DHT22;20806;50.746;7.116;2023-01-01T03:38:39;15.50;94.80
34568;DHT22;20806;50.746;7.116;2023-01-01T03:41:13;15.50;94.90
34568;DHT22;20806;50.746;7.116;2023-01-01T03:46:04;15.50;95.00
34568;DHT22;20806;50.746;7.116;2023-01-01T03:48:31;15.40;95.10
34568;DHT22;20806;50.746;7.116;2023-01-01T03:51:19;15.50;95.20
34568;DHT22;20806;50.746;7.116;2023-01-01T03:53:47;15.50;95.30
34568;DHT22;20806;50.746;7.116;2023-01-01T03:56:48;15.40;95.40
34568;DHT22;20806;50.746;7.116;2023-01-01T03:59:16;15.40;95.40
34568;DHT22;20806;50.746;7.116;2023-01-01T04:01:50;15.40;95.50
34568;DHT22;20806;50.746;7.116;2023-01-01T04:04:16;15.40;95.60
34568;DHT22;20806;50.746;7.116;2023-01-01T04:06:42;15.40;95.70
34568;DHT22;20806;50.746;7.116;2023-01-01T04:09:08;15.40;95.70
34568;DHT22;20806;50.746;7.116;2023-01-01T04:11:35;15.40;95.80
34568;DHT22;20806;50.746;7.116;2023-01-01T04:14:26;15.40;95.80
34568;DHT22;20806;50.746;7.116;2023-01-01T04:16:52;15.40;95.90
34568;DHT22;20806;50.746;7.116;2023-01-01T04:19:17;15.40;96.00
34568;DHT22;20806;50.746;7.116;2023-01-01T04:21:43;15.40;96.00
34568;DHT22;20806;50.746;7.116;2023-01-01T04:24:08;15.40;96.10
34568;DHT22;20806;50.746;7.116;2023-01-01T04:26:34;15.40;96.20
34568;DHT22;20806;50.746;7.116;2023-01-01T04:28:59;15.40;96.20
34568;DHT22;20806;50.746;7.116;2023-01-01T04:31:25;15.40;96.30
34568;DHT22;20806;50.746;7.116;2023-01-01T04:33:53;15.40;96.40
34568;DHT22;20806;50.746;7.116;2023-01-01T04:36:19;15.40;96.40
34568;DHT22;20806;50.746;7.116;2023-01-01T04:38:44;15.40;96.50
34568;DHT22;20806;50.746;7.116;2023-01-01T04:41:09;15.40;96.60
34568;DHT22;20806;50.746;7.116;2023-01-01T04:43:35;15.30;96.60
34568;DHT22;20806;50.746;7.116;2023-01-01T04:46:02;15.40;96.70
34568;DHT22;20806;50.746;7.116;2023-01-01T04:48:28;15.40;96.70
34568;DHT22;20806;50.746;7.116;2023-01-01T04:50:54;15.40;96.80
34568;DHT22;20806;50.746;7.116;2023-01-01T04:53:20;15.30;96.80
34568;DHT22;20806;50.746;7.116;2023-01-01T04:55:45;15.30;96.90
34568;DHT22;20806;50.746;7.116;2023-01-01T04:58:10;15.30;97.00
34568;DHT22;20806;50.746;7.116;2023-01-01T05:00:36;15.30;97.00
34568;DHT22;20806;50.746;7.116;2023-01-01T05:03:01;15.40;97.10
34568;DHT22;20806;50.746;7.116;2023-01-01T05:05:27;15.40;97.20
34568;DHT22;20806;50.746;7.116;2023-01-01T05:07:52;15.30;97.20
34568;DHT22;20806;50.746;7.116;2023-01-01T05:10:18;15.30;97.30
34568;DHT22;20806;50.746;7.116;2023-01-01T05:12:43;15.30;97.40
34568;DHT22;20806;50.746;7.116;2023-01-01T05:15:09;15.30;97.50
34568;DHT22;20806;50.746;7.116;2023-01-01T05:17:34;15.30;97.50
34568;DHT22;20806;50.746;7.116;2023-01-01T05:20:00;15.30;97.60
34568;DHT22;20806;50.746;7.116;2023-01-01T05:22:27;15.30;97.60
34568;DHT22;20806;50.746;7.116;2023-01-01T05:24:52;15.30;97.70
34568;DHT22;20806;50.746;7.116;2023-01-01T05:27:18;15.30;97.70
34568;DHT22;20806;50.746;7.116;2023-01-01T05:29:44;15.30;97.80
34568;DHT22;20806;50.746;7.116;2023-01-01T05:32:09;15.30;97.80
34568;DHT22;20806;50.746;7.116;2023-01-01T05:34:35;15.30;97.90
34568;DHT22;20806;50.746;7.116;2023-01-01T05:37:00;15.30;98.00
34568;DHT22;20806;50.746;7.116;2023-01-01T05:39:26;15.30;98.00
34568;DHT22;20806;50.746;7.116;2023-01-01T05:41:51;15.30;98.10
34568;DHT22;20806;50.746;7.116;2023-01-01T05:44:16;15.30;98.10
34568;DHT22;20806;50.746;7.116;2023-01-01T05:46:43;15.30;98.20
34568;DHT22;20806;50.746;7.116;2023-01-01T05:49:12;15.30;98.20
34568;DHT22;20806;50.746;7.116;2023-01-01T05:51:37;15.20;98.30
34568;DHT22;20806;50.746;7.116;2023-01-01T05:54:03;15.30;98.40
34568;DHT22;20806;50.746;7.116;2023-01-01T05:56:29;15.30;98.40
34568;DHT22;20806;50.746;7.116;2023-01-01T05:58:54;15.30;98.40
34568;DHT22;20806;50.746;7.116;2023-01-01T06:01:21;15.30;98.50
34568;DHT22;20806;50.746;7.116;2023-01-01T06:03:47;15.30;98.60
34568;DHT22;20806;50.746;7.116;2023-01-01T06:06:16;15.30;98.60
34568;DHT22;20806;50.746;7.116;2023-01-01T06:08:42;15.20;98.60
34568;DHT22;20806;50.746;7.116;2023-01-01T06:11:12;15.20;98.60
34568;DHT22;20806;50.746;7.116;2023-01-01T06:13:38;15.30;98.70
34568;DHT22;20806;50.746;7.116;2023-01-01T06:16:03;15.20;98.80
34568;DHT22;20806;50.746;7.116;2023-01-01T06:18:30;15.20;98.80
34568;DHT22;20806;50.746;7.116;2023-01-01T06:21:18;15.20;98.90
34568;DHT22;20806;50.746;7.116;2023-01-01T06:23:42;15.20;99.00
34568;DHT22;20806;50.746;7.116;2023-01-01T06:26:08;15.30;99.00
34568;DHT22;20806;50.746;7.116;2023-01-01T06:28:34;15.20;99.10
34568;DHT22;20806;50.746;7.116;2023-01-01T06:31:02;15.20;99.20
34568;DHT22;20806;50.746;7.116;2023-01-01T06:33:28;15.20;99.20
34568;DHT22;20806;50.746;7.116;2023-01-01T06:35:54;15.20;99.30
34568;DHT22;20806;50.746;7.116;2023-01-01T06:38:20;15.20;99.30
34568;DHT22;20806;50.746;7.116;2023-01-01T06:40:58;15.20;99.30
34568;DHT22;20806;50.746;7.116;2023-01-01T06:43:24;15.20;99.40
34568;DHT22;20806;50.746;7.116;2023-01-01T06:45:59;15.10;99.40
34568;DHT22;20806;50.746;7.116;2023-01-01T06:48:26;15.10;99.50
34568;DHT22;20806;50.746;7.116;2023-01-01T06:50:52;15.10;99.60
34568;DHT22;20806;50.746;7.116;2023-01-01T06:53:17;15.10;99.60
34568;DHT22;20806;50.746;7.116;2023-01-01T06:55:49;15.10;99.70
34568;DHT22;20806;50.746;7.116;2023-01-01T06:58:14;15.10;99.70
34568;DHT22;20806;50.746;7.116;2023-01-01T07:00:40;15.10;99.80
34568;DHT22;20806;50.746;7.116;2023-01-01T07:03:06;15.10;99.80
34568;DHT22;20806;50.746;7.116;2023-01-01T07:05:33;15.10;99.80
34568;DHT22;20806;50.746;7.116;2023-01-01T07:07:58;15.10;99.90
34568;DHT22;20806;50.746;7.116;2023-01-01T07:10:24;15.10;99.90
34568;DHT22;20806;50.746;7.116;2023-01-01T07:12:49;15.10;99.90
34568;DHT22;20806;50.746;7.116;2023-01-01T07:15:15;15.10;99.90
34568;DHT22;20806;50.746;7.116;2023-01-01T07:17:40;15.00;99.90
34568;DHT22;20806;50.746;7.116;2023-01-01T07:20:06;15.10;99.90
34568;DHT22;20806;50.746;7.116;2023-01-01T07:22:32;15.10;99.90
34568;DHT22;20806;50.746;7.116;2023-01-01T07:24:57;15.10;99.90
34568;DHT22;20806;50.746;7.116;2023-01-01T07:27:23;15.10;99.90
34568;DHT22;20806;50.746;7.116;2023-01-01T07:29:48;15.10;99.90
34568;DHT22;20806;50.746;7.116;2023-01-01T07:32:14;15.10;99.90
34568;DHT22;20806;50.746;7.116;2023-01-01T07:34:39;15.10;99.90
34568;DHT22;20806;50.746;7.116;2023-01-01T07:37:04;15.00;99.90
34568;DHT22;20806;50.746;7.116;2023-01-01T07:39:30;15.10;99.90
34568;DHT22;20806;50.746;7.116;2023-01-01T07:41:55;15.10;99.90
34568;DHT22;20806;50.746;7.116;2023-01-01T07:44:21;15.10;99.90
34568;DHT22;20806;50.746;7.116;2023-01-01T07:46:46;15.10;99.90
34568;DHT22;20806;50.746;7.116;2023-01-01T07:49:12;15.10;99.90
34568;DHT22;20806;50.746;7.116;2023-01-01T07:51:37;15.10;99.90
34568;DHT22;20806;50.746;7.116;2023-01-01T07:54:03;15.10;99.90
34568;DHT22;20806;50.746;7.116;2023-01-01T07:56:28;15.10;99.90
34568;DHT22;20806;50.746;7.116;2023-01-01T07:58:54;15.10;99.90
34568;DHT22;20806;50.746;7.116;2023-01-01T08:01:19;15.10;99.90
34568;DHT22;20806;50.746;7.116;2023-01-01T08:03:49;15.10;99.90
34568;DHT22;20806;50.746;7.116;2023-01-01T08:06:14;15.10;99.90
34568;DHT22;20806;50.746;7.116;2023-01-01T08:08:40;15.10;99.90
34568;DHT22;20806;50.746;7.116;2023-01-01T08:11:05;15.10;99.90
34568;DHT22;20806;50.746;7.116;2023-01-01T08:13:31;15.10;99.90
34568;DHT22;20806;50.746;7.116;2023-01-01T08:15:57;15.20;99.90
34568;DHT22;20806;50.746;7.116;2023-01-01T08:18:22;15.20;99.90
34568;DHT22;20806;50.746;7.116;2023-01-01T08:20:48;15.20;99.90
34568;DHT22;20806;50.746;7.116;2023-01-01T08:23:13;15.20;99.90
34568;DHT22;20806;50.746;7.116;2023-01-01T08:25:39;15.20;99.90
34568;DHT22;20806;50.746;7.116;2023-01-01T08:28:04;15.20;99.90
34568;DHT22;20806;50.746;7.116;2023-01-01T08:30:30;15.20;99.90
34568;DHT22;20806;50.746;7.116;2023-01-01T08:32:55;15.20;99.90
34568;DHT22;20806;50.746;7.116;2023-01-01T08:35:21;15.20;99.90
34568;DHT22;20806;50.746;7.116;2023-01-01T08:37:46;15.20;99.90
34568;DHT22;20806;50.746;7.116;2023-01-01T08:40:12;15.30;99.90
34568;DHT22;20806;50.746;7.116;2023-01-01T08:42:37;15.20;99.90
34568;DHT22;20806;50.746;7.116;2023-01-01T08:45:03;15.20;99.90
34568;DHT22;20806;50.746;7.116;2023-01-01T08:47:29;15.20;99.90
34568;DHT22;20806;50.746;7.116;2023-01-01T08:49:54;15.20;99.90
34568;DHT22;20806;50.746;7.116;2023-01-01T08:52:20;15.20;99.90
34568;DHT22;20806;50.746;7.116;2023-01-01T08:54:46;15.20;99.90
34568;DHT22;20806;50.746;7.116;2023-01-01T08:57:11;15.20;99.90
34568;DHT22;20806;50.746;7.116;2023-01-01T08:59:37;15.20;99.90
34568;DHT22;20806;50.746;7.116;2023-01-01T09:02:03;15.20;99.90
34568;DHT22;20806;50.746;7.116;2023-01-01T09:04:28;15.10;99.90
34568;DHT22;20806;50.746;7.116;2023-01-01T09:06:54;15.20;99.90
34568;DHT22;20806;50.746;7.116;2023-01-01T09:09:19;15.10;99.90
34568;DHT22;20806;50.746;7.116;2023-01-01T09:11:51;15.20;99.90
34568;DHT22;20806;50.746;7.116;2023-01-01T09:14:17;15.10;99.90
34568;DHT22;20806;50.746;7.116;2023-01-01T09:16:43;15.10;99.90
34568;DHT22;20806;50.746;7.116;2023-01-01T09:19:08;15.20;99.90
34568;DHT22;20806;50.746;7.116;2023-01-01T09:21:34;15.20;99.90
34568;DHT22;20806;50.746;7.116;2023-01-01T09:23:59;15.20;99.90
34568;DHT22;20806;50.746;7.116;2023-01-01T09:26:24;15.20;99.90
34568;DHT22;20806;50.746;7.116;2023-01-01T09:28:51;15.20;99.90
34568;DHT22;20806;50.746;7.116;2023-01-01T09:31:16;15.20;99.90
34568;DHT22;20806;50.746;7.116;2023-01-01T09:33:42;15.20;99.90
34568;DHT22;20806;50.746;7.116;2023-01-01T09:36:15;15.20;99.90
34568;DHT22;20806;50.746;7.116;2023-01-01T09:38:50;15.20;99.90
34568;DHT22;20806;50.746;7.116;2023-01-01T09:44:31;15.20;99.90
34568;DHT22;20806;50.746;7.116;2023-01-01T09:46:26;15.20;99.90
34568;DHT22;20806;50.746;7.116;2023-01-01T09:48:54;15.20;99.90
34568;DHT22;20806;50.746;7.116;2023-01-01T09:51:20;15.20;99.90
34568;DHT22;20806;50.746;7.116;2023-01-01T09:53:52;15.20;99.90
34568;DHT22;20806;50.746;7.116;2023-01-01T09:56:25;15.20;99.90
34568;DHT22;20806;50.746;7.116;2023-01-01T09:58:51;15.20;99.90
34568;DHT22;20806;50.746;7.116;2023-01-01T10:03:53;15.30;99.90
34568;DHT22;20806;50.746;7.116;2023-01-01T10:06:21;15.30;99.90
34568;DHT22;20806;50.746;7.116;2023-01-01T10:13:55;15.30;99.90
34568;DHT22;20806;50.746;7.116;2023-01-01T10:18:48;15.30;99.90
34568;DHT22;20806;50.746;7.116;2023-01-01T10:21:21;15.30;99.90
34568;DHT22;20806;50.746;7.116;2023-01-01T10:23:52;15.40;99.90
34568;DHT22;20806;50.746;7.116;2023-01-01T10:26:20;15.30;99.90
34568;DHT22;20806;50.746;7.116;2023-01-01T10:31:16;15.30;99.90
34568;DHT22;20806;50.746;7.116;2023-01-01T10:33:43;15.30;99.90
34568;DHT22;20806;50.746;7.116;2023-01-01T10:36:10;15.30;99.90
34568;DHT22;20806;50.746;7.116;2023-01-01T10:38:37;15.40;99.90
34568;DHT22;20806;50.746;7.116;2023-01-01T10:41:05;15.30;99.90
34568;DHT22;20806;50.746;7.116;2023-01-01T10:43:31;15.40;99.90
34568;DHT22;20806;50.746;7.116;2023-01-01T10:45:57;15.40;99.90
34568;DHT22;20806;50.746;7.116;2023-01-01T10:48:25;15.40;99.90
34568;DHT22;20806;50.746;7.116;2023-01-01T10:50:52;15.30;99.90
34568;DHT22;20806;50.746;7.116;2023-01-01T10:56:07;15.40;99.90
34568;DHT22;20806;50.746;7.116;2023-01-01T10:58:37;15.40;99.90
34568;DHT22;20806;50.746;7.116;2023-01-01T11:01:04;15.40;99.90
34568;DHT22;20806;50.746;7.116;2023-01-01T11:03:30;15.40;99.90
34568;DHT22;20806;50.746;7.116;2023-01-01T11:05:59;15.40;99.90
34568;DHT22;20806;50.746;7.116;2023-01-01T11:08:25;15.40;99.90
34568;DHT22;20806;50.746;7.116;2023-01-01T11:10:59;15.40;99.90
34568;DHT22;20806;50.746;7.116;2023-01-01T11:13:25;15.40;99.90
34568;DHT22;20806;50.746;7.116;2023-01-01T11:15:52;15.40;99.90
34568;DHT22;20806;50.746;7.116;2023-01-01T11:18:21;15.40;99.90
34568;DHT22;20806;50.746;7.116;2023-01-01T11:20:54;15.40;99.90
34568;DHT22;20806;50.746;7.116;2023-01-01T11:25:55;15.40;99.90
34568;DHT22;20806;50.746;7.116;2023-01-01T11:28:21;15.30;99.90
34568;DHT22;20806;50.746;7.116;2023-01-01T11:31:04;15.30;99.90
34568;DHT22;20806;50.746;7.116;2023-01-01T11:33:30;15.30;99.90
34568;DHT22;20806;50.746;7.116;2023-01-01T11:35:56;15.30;99.90
34568;DHT22;20806;50.746;7.116;2023-01-01T11:38:22;15.30;99.90
34568;DHT22;20806;50.746;7.116;2023-01-01T11:40:50;15.30;99.90
34568;DHT22;20806;50.746;7.116;2023-01-01T11:43:20;15.30;99.90
34568;DHT22;20806;50.746;7.116;2023-01-01T11:45:46;15.30;99.90
34568;DHT22;20806;50.746;7.116;2023-01-01T11:50:47;15.30;99.90
34568;DHT22;20806;50.746;7.116;2023-01-01T11:55:49;15.40;99.90
34568;DHT22;20806;50.746;7.116;2023-01-01T11:59:17;15.30;99.90
34568;DHT22;20806;50.746;7.116;2023-01-01T12:01:29;15.30;99.90
34568;DHT22;20806;50.746;7.116;2023-01-01T12:04:12;15.30;99.90
34568;DHT22;20806;50.746;7.116;2023-01-01T12:06:42;15.30;99.90
34568;DHT22;20806;50.746;7.116;2023-01-01T12:09:10;15.30;99.90
34568;DHT22;20806;50.746;7.116;2023-01-01T12:17:09;15.30;99.90
34568;DHT22;20806;50.746;7.116;2023-01-01T12:22:07;15.40;99.90
34568;DHT22;20806;50.746;7.116;2023-01-01T12:24:37;15.40;99.90
34568;DHT22;20806;50.746;7.116;2023-01-01T12:27:06;15.40;99.90
34568;DHT22;20806;50.746;7.116;2023-01-01T12:29:38;15.40;99.90
34568;DHT22;20806;50.746;7.116;2023-01-01T12:32:29;15.40;99.90
34568;DHT22;20806;50.746;7.116;2023-01-01T12:37:42;15.40;99.90
34568;DHT22;20806;50.746;7.116;2023-01-01T12:43:01;15.40;99.90
34568;DHT22;20806;50.746;7.116;2023-01-01T12:53:35;15.60;99.90
34568;DHT22;20806;50.746;7.116;2023-01-01T12:58:53;15.60;99.90
34568;DHT22;20806;50.746;7.116;2023-01-01T13:01:20;15.70;99.90
34568;DHT22;20806;50.746;7.116;2023-01-01T13:03:48;15.60;99.90
34568;DHT22;20806;50.746;7.116;2023-01-01T13:06:14;15.60;99.90
34568;DHT22;20806;50.746;7.116;2023-01-01T13:08:40;15.60;99.90
34568;DHT22;20806;50.746;7.116;2023-01-01T13:11:06;15.60;99.90
34568;DHT22;20806;50.746;7.116;2023-01-01T13:13:32;15.60;99.90
34568;DHT22;20806;50.746;7.116;2023-01-01T13:15:57;15.60;99.90
34568;DHT22;20806;50.746;7.116;2023-01-01T13:18:33;15.70;99.90
34568;DHT22;20806;50.746;7.116;2023-01-01T13:21:03;15.60;99.90
34568;DHT22;20806;50.746;7.116;2023-01-01T13:26:41;15.60;99.90
34568;DHT22;20806;50.746;7.116;2023-01-01T13:32:09;15.60;99.90
34568;DHT22;20806;50.746;7.116;2023-01-01T13:45:05;15.50;99.90
34568;DHT22;20806;50.746;7.116;2023-01-01T13:47:39;15.50;99.90
34568;DHT22;20806;50.746;7.116;2023-01-01T13:55:40;15.50;99.90
34568;DHT22;20806;50.746;7.116;2023-01-01T14:00:52;15.50;99.90
34568;DHT22;20806;50.746;7.116;2023-01-01T14:03:18;15.50;99.90
34568;DHT22;20806;50.746;7.116;2023-01-01T14:06:19;15.50;99.90
34568;DHT22;20806;50.746;7.116;2023-01-01T14:08:36;15.50;99.90
34568;DHT22;20806;50.746;7.116;2023-01-01T14:11:02;15.50;99.90
34568;DHT22;20806;50.746;7.116;2023-01-01T14:13:40;15.50;99.90
34568;DHT22;20806;50.746;7.116;2023-01-01T14:16:07;15.50;99.90
34568;DHT22;20806;50.746;7.116;2023-01-01T14:18:39;15.50;99.90
34568;DHT22;20806;50.746;7.116;2023-01-01T14:21:08;15.50;99.90
34568;DHT22;20806;50.746;7.116;2023-01-01T14:23:35;15.40;99.90
34568;DHT22;20806;50.746;7.116;2023-01-01T14:26:07;15.40;99.90
34568;DHT22;20806;50.746;7.116;2023-01-01T14:28:33;15.50;99.90
34568;DHT22;20806;50.746;7.116;2023-01-01T14:31:00;15.50;99.90
34568;DHT22;20806;50.746;7.116;2023-01-01T14:33:28;15.50;99.90
34568;DHT22;20806;50.746;7.116;2023-01-01T14:35:57;15.50;99.90
34568;DHT22;20806;50.746;7.116;2023-01-01T14:40:57;15.50;99.90
34568;DHT22;20806;50.746;7.116;2023-01-01T14:43:23;15.50;99.90
34568;DHT22;20806;50.746;7.116;2023-01-01T14:45:48;15.50;99.90
34568;DHT22;20806;50.746;7.116;2023-01-01T14:48:16;15.40;99.90
34568;DHT22;20806;50.746;7.116;2023-01-01T14:50:42;15.40;99.90
34568;DHT22;20806;50.746;7.116;2023-01-01T14:53:12;15.40;99.90
34568;DHT22;20806;50.746;7.116;2023-01-01T14:55:39;15.40;99.90
34568;DHT22;20806;50.746;7.116;2023-01-01T14:58:08;15.40;99.90
34568;DHT22;20806;50.746;7.116;2023-01-01T15:00:35;15.40;99.90
34568;DHT22;20806;50.746;7.116;2023-01-01T15:03:04;15.40;99.90
34568;DHT22;20806;50.746;7.116;2023-01-01T15:05:31;15.40;99.90
34568;DHT22;20806;50.746;7.116;2023-01-01T15:07:57;15.40;99.90
34568;DHT22;20806;50.746;7.116;2023-01-01T15:10:27;15.40;99.90
34568;DHT22;20806;50.746;7.116;2023-01-01T15:12:53;15.40;99.90
34568;DHT22;20806;50.746;7.116;2023-01-01T15:21:02;15.40;99.90
34568;DHT22;20806;50.746;7.116;2023-01-01T15:23:28;15.40;99.90
34568;DHT22;20806;50.746;7.116;2023-01-01T15:25:54;15.40;99.90
34568;DHT22;20806;50.746;7.116;2023-01-01T15:28:20;15.40;99.90
34568;DHT22;20806;50.746;7.116;2023-01-01T15:30:51;15.40;99.90
34568;DHT22;20806;50.746;7.116;2023-01-01T15:33:18;15.30;99.90
34568;DHT22;20806;50.746;7.116;2023-01-01T15:35:50;15.30;99.90
34568;DHT22;20806;50.746;7.116;2023-01-01T15:40:42;15.30;99.90
34568;DHT22;20806;50.746;7.116;2023-01-01T15:43:27;15.30;99.90
34568;DHT22;20806;50.746;7.116;2023-01-01T15:45:55;15.30;99.90
34568;DHT22;20806;50.746;7.116;2023-01-01T15:48:24;15.20;99.90
34568;DHT22;20806;50.746;7.116;2023-01-01T15:55:52;15.20;99.90
34568;DHT22;20806;50.746;7.116;2023-01-01T15:58:34;15.20;99.90
34568;DHT22;20806;50.746;7.116;2023-01-01T16:01:03;15.20;99.90
34568;DHT22;20806;50.746;7.116;2023-01-01T16:03:29;15.20;99.90
34568;DHT22;20806;50.746;7.116;2023-01-01T16:05:57;15.20;99.90
34568;DHT22;20806;50.746;7.116;2023-01-01T16:08:23;15.20;99.90
34568;DHT22;20806;50.746;7.116;2023-01-01T16:10:49;15.20;99.90
34568;DHT22;20806;50.746;7.116;2023-01-01T16:13:15;15.10;99.90
34568;DHT22;20806;50.746;7.116;2023-01-01T16:16:41;15.10;99.90
34568;DHT22;20806;50.746;7.116;2023-01-01T16:18:36;15.10;99.90
34568;DHT22;20806;50.746;7.116;2023-01-01T16:21:02;15.10;99.90
34568;DHT22;20806;50.746;7.116;2023-01-01T16:23:28;15.10;99.90
34568;DHT22;20806;50.746;7.116;2023-01-01T16:25:53;15.20;99.90
34568;DHT22;20806;50.746;7.116;2023-01-01T16:28:19;15.20;99.90
34568;DHT22;20806;50.746;7.116;2023-01-01T16:30:44;15.20;99.90
34568;DHT22;20806;50.746;7.116;2023-01-01T16:33:13;15.20;99.90
34568;DHT22;20806;50.746;7.116;2023-01-01T16:35:39;15.20;99.90
34568;DHT22;20806;50.746;7.116;2023-01-01T16:38:05;15.10;99.90
34568;DHT22;20806;50.746;7.116;2023-01-01T16:40:30;15.20;99.90
34568;DHT22;20806;50.746;7.116;2023-01-01T16:42:56;15.10;99.90
34568;DHT22;20806;50.746;7.116;2023-01-01T16:45:21;15.10;99.90
34568;DHT22;20806;50.746;7.116;2023-01-01T16:47:47;15.00;99.90
34568;DHT22;20806;50.746;7.116;2023-01-01T16:50:12;14.90;99.90
34568;DHT22;20806;50.746;7.116;2023-01-01T16:52:38;14.90;99.90
34568;DHT22;20806;50.746;7.116;2023-01-01T16:55:04;14.80;99.90
34568;DHT22;20806;50.746;7.116;2023-01-01T16:57:29;14.90;99.90
34568;DHT22;20806;50.746;7.116;2023-01-01T16:59:56;14.90;99.90
34568;DHT22;20806;50.746;7.116;2023-01-01T17:02:22;14.90;99.90
34568;DHT22;20806;50.746;7.116;2023-01-01T17:04:47;14.90;99.90
34568;DHT22;20806;50.746;7.116;2023-01-01T17:07:13;15.00;99.90
34568;DHT22;20806;50.746;7.116;2023-01-01T17:09:38;15.00;99.90
34568;DHT22;20806;50.746;7.116;2023-01-01T17:12:04;15.00;99.90
34568;DHT22;20806;50.746;7.116;2023-01-01T17:14:29;15.00;99.90
34568;DHT22;20806;50.746;7.116;2023-01-01T17:16:55;15.00;99.90
34568;DHT22;20806;50.746;7.116;2023-01-01T17:19:21;15.00;99.90
34568;DHT22;20806;50.746;7.116;2023-01-01T17:21:47;15.00;99.90
34568;DHT22;20806;50.746;7.116;2023-01-01T17:24:13;15.00;99.90
34568;DHT22;20806;50.746;7.116;2023-01-01T17:26:39;15.00;99.90
34568;DHT22;20806;50.746;7.116;2023-01-01T17:29:04;14.90;99.90
34568;DHT22;20806;50.746;7.116;2023-01-01T17:31:31;14.90;99.90
34568;DHT22;20806;50.746;7.116;2023-01-01T17:33:57;14.90;99.90
34568;DHT22;20806;50.746;7.116;2023-01-01T17:36:22;14.90;99.90